createdAt,value
2023-02-08T00:00:06.612Z,4.58
2023-02-08T00:02:34.376Z,4.53
2023-02-08T00:05:02.225Z,4.49
2023-02-08T00:07:30.046Z,4.48
2023-02-08T00:09:57.853Z,4.45
2023-02-08T00:12:25.817Z,4.44
2023-02-08T00:14:53.590Z,4.46
2023-02-08T00:17:22.704Z,4.46
2023-02-08T00:19:50.401Z,4.46
2023-02-08T00:22:18.182Z,4.33
2023-02-08T00:24:45.889Z,4.45
2023-02-08T00:27:13.643Z,4.45
2023-02-08T00:29:41.344Z,4.31
2023-02-08T00:32:10.737Z,4.43
2023-02-08T00:34:39.784Z,4.39
2023-02-08T00:37:08.675Z,4.35
2023-02-08T00:39:36.528Z,4.22
2023-02-08T00:42:04.303Z,4.27
2023-02-08T00:44:32.168Z,4.12
2023-02-08T00:47:00.584Z,4.13
2023-02-08T00:49:28.321Z,4.19
2023-02-08T00:52:09.886Z,4.16
2023-02-08T00:54:38.067Z,4.15
2023-02-08T00:57:06.001Z,3.99
2023-02-08T00:59:37.708Z,4.16
2023-02-08T01:02:05.693Z,4.17
2023-02-08T01:04:33.483Z,4.17
2023-02-08T01:07:05.077Z,4.14
2023-02-08T01:09:34.144Z,4.14
2023-02-08T01:12:02.279Z,4.14
2023-02-08T01:14:30.014Z,4.10
2023-02-08T01:16:57.912Z,4.10
2023-02-08T01:19:25.647Z,4.10
2023-02-08T01:21:53.491Z,4.07
2023-02-08T01:24:22.698Z,4.08
2023-02-08T01:26:50.529Z,4.13
2023-02-08T01:29:18.300Z,4.05
2023-02-08T01:31:47.157Z,4.13
2023-02-08T01:34:14.941Z,4.12
2023-02-08T01:36:42.829Z,4.10
2023-02-08T01:39:11.512Z,4.12
2023-02-08T01:41:43.503Z,3.91
2023-02-08T01:44:45.242Z,4.09
2023-02-08T01:47:13.090Z,4.08
2023-02-08T01:49:41.900Z,3.77
2023-02-08T01:52:10.840Z,3.60
2023-02-08T01:54:46.035Z,4.05
2023-02-08T01:57:15.138Z,4.00
2023-02-08T01:59:44.612Z,4.01
2023-02-08T02:02:13.888Z,3.78
2023-02-08T02:04:41.799Z,3.93
2023-02-08T02:07:09.560Z,3.87
2023-02-08T02:09:41.242Z,3.76
2023-02-08T02:12:09.185Z,3.63
2023-02-08T02:14:38.583Z,3.96
2023-02-08T02:17:06.386Z,3.96
2023-02-08T02:19:38.163Z,3.83
2023-02-08T02:22:19.971Z,3.96
2023-02-08T02:25:13.517Z,3.95
2023-02-08T02:28:10.675Z,3.98
2023-02-08T02:31:07.837Z,3.95
2023-02-08T02:33:46.599Z,3.97
2023-02-08T02:36:18.987Z,3.96
2023-02-08T02:38:54.660Z,3.83
2023-02-08T02:41:41.101Z,3.54
2023-02-08T02:44:13.240Z,3.75
2023-02-08T02:46:42.229Z,3.67
2023-02-08T02:49:13.989Z,3.78
2023-02-08T02:51:43.838Z,3.85
2023-02-08T02:54:14.337Z,3.93
2023-02-08T02:56:46.037Z,3.81
2023-02-08T02:59:14.627Z,3.94
2023-02-08T03:01:43.540Z,3.95
2023-02-08T03:04:16.882Z,3.92
2023-02-08T03:06:52.570Z,3.75
2023-02-08T03:09:40.249Z,3.92
2023-02-08T03:12:15.464Z,3.41
2023-02-08T03:14:46.078Z,3.93
2023-02-08T03:17:24.559Z,3.89
2023-02-08T03:19:58.407Z,3.59
2023-02-08T03:22:27.645Z,3.49
2023-02-08T03:24:56.062Z,3.92
2023-02-08T03:27:28.994Z,3.89
2023-02-08T03:30:00.174Z,3.69
2023-02-08T03:32:29.494Z,3.82
2023-02-08T03:35:01.005Z,3.75
2023-02-08T03:37:29.939Z,3.88
2023-02-08T03:40:00.057Z,3.85
2023-02-08T03:42:28.228Z,3.85
2023-02-08T03:44:57.825Z,3.78
2023-02-08T03:47:27.158Z,3.81
2023-02-08T03:49:56.141Z,3.80
2023-02-08T03:52:25.380Z,3.78
2023-02-08T03:54:56.672Z,3.27
2023-02-08T03:57:25.229Z,3.63
2023-02-08T03:59:55.403Z,3.53
2023-02-08T04:02:23.248Z,3.72
2023-02-08T04:04:51.216Z,3.70
2023-02-08T04:07:19.186Z,3.70
2023-02-08T04:09:48.455Z,3.71
2023-02-08T04:12:16.227Z,3.57
2023-02-08T04:14:44.084Z,3.69
2023-02-08T04:17:11.818Z,3.67
2023-02-08T04:19:39.675Z,3.58
2023-02-08T04:22:07.493Z,3.37
2023-02-08T04:24:35.329Z,3.67
2023-02-08T04:27:06.081Z,3.66
2023-02-08T04:29:34.111Z,3.53
2023-02-08T04:32:02.523Z,3.65
2023-02-08T04:34:30.511Z,3.66
2023-02-08T04:36:58.341Z,3.70
2023-02-08T04:39:26.423Z,3.60
2023-02-08T04:41:54.317Z,3.67
2023-02-08T04:44:23.978Z,3.66
2023-02-08T04:46:51.735Z,3.64
2023-02-08T04:49:19.645Z,3.62
2023-02-08T04:51:47.539Z,3.60
2023-02-08T04:54:15.355Z,3.58
2023-02-08T04:56:43.187Z,3.56
2023-02-08T04:59:10.962Z,3.56
2023-02-08T05:01:40.175Z,3.57
2023-02-08T05:04:07.927Z,3.47
2023-02-08T05:06:35.757Z,3.58
2023-02-08T05:09:03.736Z,3.57
2023-02-08T05:11:32.558Z,3.60
2023-02-08T05:14:00.421Z,3.50
2023-02-08T05:16:28.420Z,3.32
2023-02-08T05:18:58.154Z,3.56
2023-02-08T05:21:26.323Z,3.57
2023-02-08T05:23:54.241Z,2.97
2023-02-08T05:26:22.184Z,2.71
2023-02-08T05:28:50.055Z,3.55
2023-02-08T05:31:19.543Z,3.55
2023-02-08T05:33:47.499Z,3.45
2023-02-08T05:36:17.422Z,3.52
2023-02-08T05:38:45.225Z,3.52
2023-02-08T05:41:14.083Z,3.43
2023-02-08T05:43:41.839Z,3.42
2023-02-08T05:46:09.789Z,3.48
2023-02-08T05:48:37.749Z,3.32
2023-02-08T05:53:34.637Z,3.45
2023-02-08T05:56:02.411Z,3.16
2023-02-08T05:58:30.319Z,3.41
2023-02-08T06:00:58.414Z,3.41
2023-02-08T06:03:26.446Z,3.42
2023-02-08T06:05:54.115Z,3.47
2023-02-08T06:08:21.999Z,3.49
2023-02-08T06:10:51.241Z,3.09
2023-02-08T06:13:19.418Z,3.51
2023-02-08T06:15:47.308Z,3.47
2023-02-08T06:18:16.440Z,3.37
2023-02-08T06:20:44.440Z,3.33
2023-02-08T06:23:12.194Z,3.42
2023-02-08T06:25:40.101Z,3.31
2023-02-08T06:28:10.752Z,3.45
2023-02-08T06:30:38.848Z,3.44
2023-02-08T06:33:07.005Z,3.43
2023-02-08T06:35:34.721Z,3.31
2023-02-08T06:38:06.260Z,3.37
2023-02-08T06:40:39.390Z,3.21
2023-02-08T06:43:08.809Z,1.91
2023-02-08T06:45:39.279Z,3.39
2023-02-08T06:48:14.636Z,3.25
2023-02-08T06:50:42.910Z,3.44
2023-02-08T06:53:11.036Z,3.46
2023-02-08T06:55:44.929Z,3.02
2023-02-08T06:58:14.232Z,3.43
2023-02-08T07:00:50.224Z,3.25
2023-02-08T07:03:18.576Z,3.44
2023-02-08T07:06:02.543Z,3.43
2023-02-08T07:08:34.657Z,3.25
2023-02-08T07:11:07.802Z,3.24
2023-02-08T07:13:37.099Z,3.49
2023-02-08T07:16:04.991Z,3.35
2023-02-08T07:18:33.238Z,3.20
2023-02-08T07:21:03.651Z,3.42
2023-02-08T07:23:31.388Z,3.46
2023-02-08T07:26:02.786Z,3.57
2023-02-08T07:28:30.595Z,3.57
2023-02-08T07:30:59.737Z,3.56
2023-02-08T07:33:27.581Z,3.12
2023-02-08T07:35:55.452Z,3.62
2023-02-08T07:38:23.326Z,3.77
2023-02-08T07:40:51.068Z,3.92
2023-02-08T07:43:18.986Z,3.91
2023-02-08T07:45:46.700Z,4.08
2023-02-08T07:48:15.741Z,4.49
2023-02-08T07:50:43.501Z,5.29
2023-02-08T07:53:11.495Z,6.21
2023-02-08T07:55:39.263Z,7.11
2023-02-08T07:58:07.399Z,7.83
2023-02-08T08:00:35.251Z,8.54
2023-02-08T08:03:03.106Z,9.12
2023-02-08T08:05:32.371Z,9.61
2023-02-08T08:08:00.309Z,10.06
2023-02-08T08:10:29.015Z,10.46
2023-02-08T08:12:56.655Z,11.01
2023-02-08T08:15:24.440Z,11.65
2023-02-08T08:17:52.128Z,12.13
2023-02-08T08:20:21.278Z,12.83
2023-02-08T08:22:50.325Z,13.60
2023-02-08T13:03:04.986Z,27.94
2023-02-08T13:05:34.502Z,25.96
2023-02-08T13:08:04.869Z,24.41
2023-02-08T13:10:35.208Z,23.21
2023-02-08T13:13:07.211Z,22.11
2023-02-08T13:15:38.604Z,21.19
2023-02-08T13:18:14.863Z,20.53
2023-02-08T13:20:44.344Z,19.82
2023-02-08T13:23:17.697Z,19.22
2023-02-08T13:25:48.809Z,18.78
2023-02-08T13:28:20.767Z,18.21
2023-02-08T13:30:53.836Z,18.04
2023-02-08T13:33:30.795Z,17.57
2023-02-08T13:35:59.294Z,17.33
2023-02-08T13:38:29.146Z,17.02
2023-02-08T13:41:08.533Z,16.37
2023-02-08T13:43:40.176Z,16.37
2023-02-08T13:46:08.211Z,16.07
2023-02-08T13:48:50.501Z,15.87
2023-02-08T13:51:59.944Z,15.80
2023-02-08T13:54:29.966Z,15.68
2023-02-08T13:56:57.795Z,15.56
2023-02-08T13:59:28.880Z,15.37
2023-02-08T14:02:20.306Z,15.40
2023-02-08T14:04:53.965Z,15.30
2023-02-08T14:07:37.438Z,15.07
2023-02-08T14:10:14.060Z,14.99
2023-02-08T14:12:44.063Z,14.79
2023-02-08T14:15:29.829Z,14.71
2023-02-08T14:18:02.628Z,14.56
2023-02-08T14:20:34.584Z,14.45
2023-02-08T14:23:06.622Z,14.26
2023-02-08T14:25:43.556Z,14.32
2023-02-08T14:28:28.500Z,14.37
2023-02-08T14:31:04.493Z,14.20
2023-02-08T14:33:33.398Z,14.19
2023-02-08T14:36:04.158Z,13.97
2023-02-08T14:38:36.328Z,14.00
2023-02-08T14:41:04.527Z,13.97
2023-02-08T14:43:34.130Z,13.23
2023-02-08T14:46:34.998Z,13.40
2023-02-08T14:49:05.156Z,13.89
2023-02-08T14:51:35.239Z,13.63
2023-02-08T14:54:04.831Z,13.84
2023-02-08T14:56:33.656Z,13.82
2023-02-08T14:59:02.512Z,13.32
2023-02-08T15:01:43.969Z,13.50
2023-02-08T15:04:12.491Z,13.57
2023-02-08T15:07:12.747Z,13.41
2023-02-08T15:09:41.213Z,13.33
2023-02-08T15:12:11.860Z,13.31
2023-02-08T15:14:41.522Z,13.30
2023-02-08T15:17:28.339Z,13.30
2023-02-08T15:19:56.094Z,13.21
2023-02-08T15:22:34.136Z,13.06
2023-02-08T15:25:05.607Z,13.07
2023-02-08T15:27:34.040Z,13.05
2023-02-08T15:30:01.960Z,13.05
2023-02-08T15:32:30.114Z,12.95
2023-02-08T15:34:59.219Z,12.95
2023-02-08T15:37:27.182Z,12.94
2023-02-08T15:39:57.068Z,12.88
2023-02-08T15:42:25.606Z,12.88
2023-02-08T15:44:53.669Z,12.58
2023-02-08T15:47:23.702Z,12.51
2023-02-08T15:49:53.522Z,12.68
2023-02-08T15:52:22.571Z,12.72
2023-02-08T15:54:50.331Z,12.70
2023-02-08T15:57:24.405Z,12.57
2023-02-08T15:59:52.083Z,12.48
2023-02-08T16:02:24.779Z,12.34
2023-02-08T16:04:52.561Z,12.45
2023-02-08T16:07:25.749Z,12.45
2023-02-08T16:09:53.713Z,12.41
2023-02-08T16:12:23.674Z,12.36
2023-02-08T16:14:52.960Z,12.29
2023-02-08T16:17:37.108Z,12.25
2023-02-08T16:20:05.429Z,12.11
2023-02-08T16:22:33.563Z,12.06
2023-02-08T16:25:23.439Z,11.99
2023-02-08T16:27:52.577Z,11.92
2023-02-08T16:30:20.791Z,11.85
2023-02-08T16:32:48.513Z,11.71
2023-02-08T16:35:21.474Z,11.70
2023-02-08T16:37:54.633Z,11.52
2023-02-08T16:40:48.769Z,11.35
2023-02-08T16:43:19.211Z,11.43
2023-02-08T16:45:47.257Z,10.99
2023-02-08T16:48:33.355Z,11.26
2023-02-08T16:51:01.175Z,10.40
2023-02-08T16:53:41.325Z,10.70
2023-02-08T16:56:09.839Z,10.84
2023-02-08T16:58:38.944Z,10.88
2023-02-08T17:01:07.013Z,10.76
2023-02-08T17:03:38.013Z,10.51
2023-02-08T17:06:06.188Z,10.46
2023-02-08T17:08:35.884Z,10.46
2023-02-08T17:11:03.848Z,10.27
2023-02-08T17:13:31.590Z,9.81
2023-02-08T17:16:01.303Z,10.04
2023-02-08T17:18:29.162Z,10.09
2023-02-08T17:20:59.862Z,10.00
2023-02-08T17:23:27.717Z,9.73
2023-02-08T17:25:55.699Z,9.90
2023-02-08T17:28:23.455Z,9.63
2023-02-08T17:30:53.134Z,9.79
2023-02-08T17:33:22.832Z,9.53
2023-02-08T17:35:52.883Z,9.67
2023-02-08T17:38:21.579Z,9.62
2023-02-08T17:40:49.430Z,9.33
2023-02-08T17:43:17.170Z,9.35
2023-02-08T17:45:45.314Z,9.29
2023-02-08T17:48:14.437Z,9.41
2023-02-08T17:50:45.091Z,9.27
2023-02-08T17:53:13.677Z,9.14
2023-02-08T17:55:43.209Z,9.15
2023-02-08T17:58:11.280Z,9.08
2023-02-08T18:00:39.354Z,9.02
2023-02-08T18:03:07.313Z,8.95
2023-02-08T18:05:35.281Z,9.04
2023-02-08T18:08:04.477Z,8.11
2023-02-08T18:10:32.834Z,8.72
2023-02-08T18:13:00.615Z,8.77
2023-02-08T18:15:28.573Z,8.81
2023-02-08T18:17:56.438Z,8.75
2023-02-08T18:20:30.616Z,8.70
2023-02-08T18:22:58.581Z,8.65
2023-02-08T18:25:30.801Z,8.51
2023-02-08T18:28:00.966Z,8.46
2023-02-08T18:31:53.693Z,8.54
2023-02-08T18:37:12.413Z,8.22
2023-02-08T18:39:40.798Z,8.40
2023-02-08T18:42:10.675Z,8.33
2023-02-08T18:44:39.658Z,8.37
2023-02-08T18:47:07.688Z,8.18
2023-02-08T18:49:40.450Z,8.32
2023-02-08T18:52:09.617Z,8.30
2023-02-08T18:54:38.048Z,8.02
2023-02-08T18:57:07.706Z,8.26
2023-02-08T18:59:37.095Z,8.23
2023-02-08T19:02:07.002Z,8.20
2023-02-08T19:04:37.848Z,8.10
2023-02-08T19:07:05.737Z,8.13
2023-02-08T19:09:35.906Z,8.13
2023-02-08T19:12:05.927Z,8.10
2023-02-08T19:14:36.370Z,8.06
2023-02-08T19:17:05.993Z,8.02
2023-02-08T19:19:36.014Z,8.01
2023-02-08T19:22:04.894Z,7.98
2023-02-08T19:24:32.689Z,7.98
2023-02-08T19:27:00.528Z,7.90
2023-02-08T19:29:28.250Z,7.90
2023-02-08T19:31:58.265Z,7.80
2023-02-08T19:34:27.689Z,7.85
2023-02-08T19:36:55.774Z,7.79
2023-02-08T19:39:24.910Z,7.78
2023-02-08T19:41:54.057Z,7.54
2023-02-08T19:44:21.861Z,7.76
2023-02-08T19:46:50.021Z,7.74
2023-02-08T19:49:17.787Z,7.74
2023-02-08T19:51:46.932Z,7.58
2023-02-08T19:54:15.989Z,7.57
2023-02-08T19:56:43.739Z,7.37
2023-02-08T19:59:17.479Z,7.52
2023-02-08T20:01:45.352Z,7.49
2023-02-08T20:04:13.486Z,7.46
2023-02-08T20:06:41.683Z,7.45
2023-02-08T20:09:10.894Z,7.43
2023-02-08T20:11:55.029Z,7.42
2023-02-08T20:14:24.586Z,7.43
2023-02-08T20:16:52.433Z,7.12
2023-02-08T20:19:20.438Z,7.31
2023-02-08T20:21:48.139Z,7.33
2023-02-08T20:24:17.599Z,7.36
2023-02-08T20:26:45.976Z,7.26
2023-02-08T20:29:15.125Z,7.25
2023-02-08T20:31:44.053Z,7.26
2023-02-08T20:34:13.064Z,7.14
2023-02-08T20:36:44.099Z,7.25
2023-02-08T20:39:14.059Z,7.19
2023-02-08T20:41:44.296Z,7.20
2023-02-08T20:44:12.747Z,7.19
2023-02-08T20:46:43.073Z,6.94
2023-02-08T20:49:12.720Z,7.06
2023-02-08T20:51:44.015Z,7.10
2023-02-08T20:54:12.492Z,6.78
2023-02-08T20:56:40.265Z,7.10
2023-02-08T21:01:40.521Z,7.02
2023-02-08T21:04:08.519Z,7.05
2023-02-08T21:06:37.559Z,7.04
2023-02-08T21:09:06.850Z,7.02
2023-02-08T21:11:35.675Z,7.02
2023-02-08T21:14:03.619Z,6.99
2023-02-08T21:16:31.765Z,6.92
2023-02-08T21:19:01.120Z,6.90
2023-02-08T21:21:29.225Z,6.86
2023-02-08T21:23:58.085Z,6.90
2023-02-08T21:26:26.133Z,6.89
2023-02-08T21:28:54.380Z,6.84
2023-02-08T21:31:22.935Z,6.50
2023-02-08T21:33:51.375Z,6.62
2023-02-08T21:36:21.564Z,6.75
2023-02-08T21:38:49.437Z,6.75
2023-02-08T21:41:20.270Z,6.71
2023-02-08T21:43:49.340Z,6.55
2023-02-08T21:46:18.473Z,6.61
2023-02-08T21:49:03.838Z,6.64
2023-02-08T21:51:50.743Z,6.61
2023-02-08T21:54:40.363Z,6.61
2023-02-08T21:57:10.385Z,6.56
2023-02-08T21:59:38.280Z,6.58
2023-02-08T22:02:06.967Z,6.57
2023-02-08T22:04:35.163Z,6.46
2023-02-08T22:07:05.277Z,6.54
2023-02-08T22:09:33.109Z,6.52
2023-02-08T22:12:00.803Z,6.49
2023-02-08T22:14:28.448Z,6.47
2023-02-08T22:16:56.576Z,6.17
2023-02-08T22:19:24.356Z,6.37
2023-02-08T22:21:52.541Z,6.25
2023-02-08T22:24:21.646Z,6.31
2023-02-08T22:26:49.414Z,6.33
2023-02-08T22:29:20.047Z,6.29
2023-02-08T22:31:47.909Z,6.23
2023-02-08T22:34:15.679Z,6.21
2023-02-08T22:36:43.399Z,6.23
2023-02-08T22:39:11.086Z,6.24
2023-02-08T22:41:40.222Z,6.22
2023-02-08T22:44:07.870Z,6.20
2023-02-08T22:46:35.644Z,6.16
2023-02-08T22:49:03.480Z,6.18
2023-02-08T22:51:31.295Z,6.14
2023-02-08T22:53:58.995Z,6.11
2023-02-08T22:56:26.745Z,6.10
2023-02-08T22:58:55.813Z,6.04
2023-02-08T23:01:23.541Z,6.08
2023-02-08T23:03:51.274Z,6.02
2023-02-08T23:06:20.393Z,6.01
2023-02-08T23:08:48.228Z,5.96
2023-02-08T23:11:16.370Z,5.95
2023-02-08T23:13:44.024Z,5.93
2023-02-08T23:16:14.389Z,5.91
2023-02-08T23:18:42.391Z,5.92
2023-02-08T23:21:10.579Z,5.58
2023-02-08T23:23:38.314Z,5.86
2023-02-08T23:26:06.862Z,5.86
2023-02-08T23:28:34.691Z,5.61
2023-02-08T23:31:05.513Z,5.82
2023-02-08T23:33:34.930Z,5.79
2023-02-08T23:36:06.662Z,5.77
2023-02-08T23:38:34.413Z,5.75
2023-02-08T23:41:04.031Z,5.78
2023-02-08T23:43:32.124Z,5.79
2023-02-08T23:45:59.898Z,5.72
2023-02-08T23:48:27.725Z,5.77
2023-02-08T23:50:59.770Z,5.74
2023-02-08T23:53:30.656Z,5.75
2023-02-08T23:56:09.449Z,5.74
2023-02-08T23:58:37.257Z,5.74
